sensor_id;sensor_type;location;lat;lon;timestamp;P1;durP1;ratioP1;P2;durP2;ratioP2
72920;SDS011;61064;51.654;5.476;2022-08-01T00:00:22;21.20;;;10.37;;
72920;SDS011;61064;51.654;5.476;2022-08-01T00:02:47;23.83;;;10.27;;
72920;SDS011;61064;51.654;5.476;2022-08-01T00:05:13;23.17;;;9.70;;
72920;SDS011;61064;51.654;5.476;2022-08-01T00:07:38;20.25;;;9.32;;
72920;SDS011;61064;51.654;5.476;2022-08-01T00:10:05;23.00;;;10.53;;
72920;SDS011;61064;51.654;5.476;2022-08-01T00:12:32;21.80;;;10.15;;
72920;SDS011;61064;51.654;5.476;2022-08-01T00:14:57;23.47;;;11.13;;
72920;SDS011;61064;51.654;5.476;2022-08-01T00:17:22;20.83;;;9.90;;
72920;SDS011;61064;51.654;5.476;2022-08-01T00:19:48;21.60;;;9.73;;
72920;SDS011;61064;51.654;5.476;2022-08-01T00:22:13;23.47;;;10.17;;
72920;SDS011;61064;51.654;5.476;2022-08-01T00:24:39;22.00;;;10.50;;
72920;SDS011;61064;51.654;5.476;2022-08-01T00:27:04;22.77;;;10.43;;
72920;SDS011;61064;51.654;5.476;2022-08-01T00:29:29;23.90;;;10.70;;
72920;SDS011;61064;51.654;5.476;2022-08-01T00:31:55;21.30;;;10.77;;
72920;SDS011;61064;51.654;5.476;2022-08-01T00:34:20;21.40;;;9.97;;
72920;SDS011;61064;51.654;5.476;2022-08-01T00:36:46;15.80;;;9.00;;
72920;SDS011;61064;51.654;5.476;2022-08-01T00:39:12;19.00;;;9.03;;
72920;SDS011;61064;51.654;5.476;2022-08-01T00:41:37;20.15;;;9.15;;
72920;SDS011;61064;51.654;5.476;2022-08-01T00:44:06;19.25;;;9.40;;
72920;SDS011;61064;51.654;5.476;2022-08-01T00:46:32;15.57;;;8.40;;
72920;SDS011;61064;51.654;5.476;2022-08-01T00:48:58;15.07;;;7.82;;
72920;SDS011;61064;51.654;5.476;2022-08-01T00:51:24;16.33;;;7.75;;
72920;SDS011;61064;51.654;5.476;2022-08-01T00:53:50;15.68;;;8.32;;
72920;SDS011;61064;51.654;5.476;2022-08-01T00:56:16;16.00;;;7.87;;
72920;SDS011;61064;51.654;5.476;2022-08-01T00:58:42;15.88;;;7.60;;
72920;SDS011;61064;51.654;5.476;2022-08-01T01:01:08;14.18;;;7.70;;
72920;SDS011;61064;51.654;5.476;2022-08-01T01:03:34;15.13;;;7.65;;
72920;SDS011;61064;51.654;5.476;2022-08-01T01:08:30;15.18;;;7.63;;
72920;SDS011;61064;51.654;5.476;2022-08-01T01:11:05;14.10;;;7.55;;
72920;SDS011;61064;51.654;5.476;2022-08-01T01:13:41;16.47;;;7.87;;
72920;SDS011;61064;51.654;5.476;2022-08-01T01:16:14;15.13;;;7.60;;
72920;SDS011;61064;51.654;5.476;2022-08-01T01:18:43;15.13;;;7.72;;
72920;SDS011;61064;51.654;5.476;2022-08-01T01:21:14;17.35;;;7.53;;
72920;SDS011;61064;51.654;5.476;2022-08-01T01:24:27;15.18;;;7.55;;
72920;SDS011;61064;51.654;5.476;2022-08-01T01:27:18;15.97;;;7.23;;
72920;SDS011;61064;51.654;5.476;2022-08-01T01:29:50;17.13;;;7.07;;
72920;SDS011;61064;51.654;5.476;2022-08-01T01:32:28;14.85;;;7.47;;
72920;SDS011;61064;51.654;5.476;2022-08-01T01:34:58;14.68;;;7.18;;
72920;SDS011;61064;51.654;5.476;2022-08-01T01:37:28;17.48;;;7.20;;
72920;SDS011;61064;51.654;5.476;2022-08-01T01:39:56;15.47;;;7.80;;
72920;SDS011;61064;51.654;5.476;2022-08-01T01:42:24;15.32;;;7.68;;
72920;SDS011;61064;51.654;5.476;2022-08-01T01:44:50;15.73;;;7.32;;
72920;SDS011;61064;51.654;5.476;2022-08-01T01:47:16;16.45;;;7.45;;
72920;SDS011;61064;51.654;5.476;2022-08-01T01:49:43;15.17;;;7.47;;
72920;SDS011;61064;51.654;5.476;2022-08-01T01:52:11;14.17;;;7.20;;
72920;SDS011;61064;51.654;5.476;2022-08-01T01:54:42;15.35;;;7.10;;
72920;SDS011;61064;51.654;5.476;2022-08-01T01:57:12;14.18;;;7.40;;
72920;SDS011;61064;51.654;5.476;2022-08-01T01:59:40;16.40;;;7.45;;
72920;SDS011;61064;51.654;5.476;2022-08-01T02:02:06;15.23;;;6.85;;
72920;SDS011;61064;51.654;5.476;2022-08-01T02:04:35;14.60;;;7.20;;
72920;SDS011;61064;51.654;5.476;2022-08-01T02:07:05;16.85;;;7.88;;
72920;SDS011;61064;51.654;5.476;2022-08-01T02:09:33;16.45;;;7.53;;
72920;SDS011;61064;51.654;5.476;2022-08-01T02:12:02;14.35;;;6.68;;
72920;SDS011;61064;51.654;5.476;2022-08-01T02:14:30;17.15;;;7.32;;
72920;SDS011;61064;51.654;5.476;2022-08-01T02:17:00;15.90;;;7.57;;
72920;SDS011;61064;51.654;5.476;2022-08-01T02:19:34;16.33;;;8.02;;
72920;SDS011;61064;51.654;5.476;2022-08-01T02:22:10;16.73;;;7.25;;
72920;SDS011;61064;51.654;5.476;2022-08-01T02:27:06;14.80;;;7.53;;
72920;SDS011;61064;51.654;5.476;2022-08-01T02:29:39;15.37;;;7.00;;
72920;SDS011;61064;51.654;5.476;2022-08-01T02:32:12;15.98;;;7.57;;
72920;SDS011;61064;51.654;5.476;2022-08-01T02:35:00;16.70;;;7.38;;
72920;SDS011;61064;51.654;5.476;2022-08-01T02:37:29;15.80;;;7.90;;
72920;SDS011;61064;51.654;5.476;2022-08-01T02:39:58;17.25;;;7.60;;
72920;SDS011;61064;51.654;5.476;2022-08-01T02:42:26;19.07;;;7.50;;
72920;SDS011;61064;51.654;5.476;2022-08-01T02:44:55;17.88;;;8.02;;
72920;SDS011;61064;51.654;5.476;2022-08-01T02:47:22;17.40;;;7.53;;
72920;SDS011;61064;51.654;5.476;2022-08-01T02:49:50;16.27;;;6.90;;
72920;SDS011;61064;51.654;5.476;2022-08-01T02:52:18;15.93;;;7.13;;
72920;SDS011;61064;51.654;5.476;2022-08-01T02:54:47;16.07;;;6.40;;
72920;SDS011;61064;51.654;5.476;2022-08-01T02:57:15;15.60;;;6.72;;
72920;SDS011;61064;51.654;5.476;2022-08-01T02:59:42;15.20;;;6.32;;
72920;SDS011;61064;51.654;5.476;2022-08-01T03:02:08;18.20;;;7.20;;
72920;SDS011;61064;51.654;5.476;2022-08-01T03:04:36;16.45;;;7.10;;
72920;SDS011;61064;51.654;5.476;2022-08-01T03:07:05;16.10;;;7.20;;
72920;SDS011;61064;51.654;5.476;2022-08-01T03:09:33;16.92;;;7.05;;
72920;SDS011;61064;51.654;5.476;2022-08-01T03:12:02;16.30;;;6.50;;
72920;SDS011;61064;51.654;5.476;2022-08-01T03:14:31;15.75;;;6.88;;
72920;SDS011;61064;51.654;5.476;2022-08-01T03:17:00;15.93;;;6.88;;
72920;SDS011;61064;51.654;5.476;2022-08-01T03:19:27;17.40;;;7.03;;
72920;SDS011;61064;51.654;5.476;2022-08-01T03:21:55;16.40;;;7.40;;
72920;SDS011;61064;51.654;5.476;2022-08-01T03:24:23;16.02;;;7.10;;
72920;SDS011;61064;51.654;5.476;2022-08-01T03:26:52;18.58;;;7.30;;
72920;SDS011;61064;51.654;5.476;2022-08-01T03:29:21;16.35;;;7.15;;
72920;SDS011;61064;51.654;5.476;2022-08-01T03:31:50;16.63;;;6.90;;
72920;SDS011;61064;51.654;5.476;2022-08-01T03:34:17;17.67;;;7.57;;
72920;SDS011;61064;51.654;5.476;2022-08-01T03:36:48;17.25;;;7.25;;
72920;SDS011;61064;51.654;5.476;2022-08-01T03:39:17;16.05;;;7.13;;
72920;SDS011;61064;51.654;5.476;2022-08-01T03:41:50;17.20;;;7.00;;
72920;SDS011;61064;51.654;5.476;2022-08-01T03:44:22;14.60;;;7.00;;
72920;SDS011;61064;51.654;5.476;2022-08-01T03:46:54;17.80;;;7.78;;
72920;SDS011;61064;51.654;5.476;2022-08-01T03:49:47;17.35;;;7.35;;
72920;SDS011;61064;51.654;5.476;2022-08-01T03:52:13;16.40;;;7.03;;
72920;SDS011;61064;51.654;5.476;2022-08-01T03:54:41;17.48;;;7.38;;
72920;SDS011;61064;51.654;5.476;2022-08-01T03:57:11;17.33;;;7.13;;
72920;SDS011;61064;51.654;5.476;2022-08-01T03:59:38;16.63;;;6.43;;
72920;SDS011;61064;51.654;5.476;2022-08-01T04:02:05;17.55;;;7.32;;
72920;SDS011;61064;51.654;5.476;2022-08-01T04:04:31;18.45;;;7.28;;
72920;SDS011;61064;51.654;5.476;2022-08-01T04:06:58;14.25;;;6.93;;
72920;SDS011;61064;51.654;5.476;2022-08-01T04:09:29;16.07;;;6.27;;
72920;SDS011;61064;51.654;5.476;2022-08-01T04:11:55;18.40;;;7.07;;
72920;SDS011;61064;51.654;5.476;2022-08-01T04:14:20;15.77;;;6.73;;
72920;SDS011;61064;51.654;5.476;2022-08-01T04:16:45;16.97;;;7.20;;
72920;SDS011;61064;51.654;5.476;2022-08-01T04:19:11;15.80;;;6.50;;
72920;SDS011;61064;51.654;5.476;2022-08-01T04:21:36;15.27;;;6.57;;
72920;SDS011;61064;51.654;5.476;2022-08-01T04:24:03;17.97;;;7.50;;
72920;SDS011;61064;51.654;5.476;2022-08-01T04:26:33;18.60;;;7.53;;
72920;SDS011;61064;51.654;5.476;2022-08-01T04:29:02;17.42;;;6.78;;
72920;SDS011;61064;51.654;5.476;2022-08-01T04:31:30;17.37;;;7.10;;
72920;SDS011;61064;51.654;5.476;2022-08-01T04:33:57;17.50;;;6.70;;
72920;SDS011;61064;51.654;5.476;2022-08-01T04:36:26;17.77;;;7.03;;
72920;SDS011;61064;51.654;5.476;2022-08-01T04:38:56;16.83;;;6.85;;
72920;SDS011;61064;51.654;5.476;2022-08-01T04:41:24;19.27;;;7.28;;
72920;SDS011;61064;51.654;5.476;2022-08-01T04:43:50;18.13;;;7.17;;
72920;SDS011;61064;51.654;5.476;2022-08-01T04:46:17;16.42;;;6.80;;
72920;SDS011;61064;51.654;5.476;2022-08-01T04:48:43;17.48;;;6.70;;
72920;SDS011;61064;51.654;5.476;2022-08-01T04:51:13;15.20;;;6.65;;
72920;SDS011;61064;51.654;5.476;2022-08-01T04:53:43;19.20;;;7.20;;
72920;SDS011;61064;51.654;5.476;2022-08-01T04:56:10;18.30;;;7.25;;
72920;SDS011;61064;51.654;5.476;2022-08-01T04:58:38;15.60;;;7.10;;
72920;SDS011;61064;51.654;5.476;2022-08-01T05:01:07;19.33;;;7.45;;
72920;SDS011;61064;51.654;5.476;2022-08-01T05:03:32;15.83;;;6.83;;
72920;SDS011;61064;51.654;5.476;2022-08-01T05:05:58;16.92;;;7.30;;
72920;SDS011;61064;51.654;5.476;2022-08-01T05:08:23;17.27;;;7.47;;
72920;SDS011;61064;51.654;5.476;2022-08-01T05:10:49;19.55;;;6.95;;
72920;SDS011;61064;51.654;5.476;2022-08-01T05:13:15;15.93;;;6.73;;
72920;SDS011;61064;51.654;5.476;2022-08-01T05:15:40;18.67;;;6.73;;
72920;SDS011;61064;51.654;5.476;2022-08-01T05:18:06;15.93;;;6.68;;
72920;SDS011;61064;51.654;5.476;2022-08-01T05:20:31;15.80;;;6.70;;
72920;SDS011;61064;51.654;5.476;2022-08-01T05:22:57;16.77;;;7.27;;
72920;SDS011;61064;51.654;5.476;2022-08-01T05:25:22;15.63;;;6.80;;
72920;SDS011;61064;51.654;5.476;2022-08-01T05:27:48;16.70;;;7.20;;
72920;SDS011;61064;51.654;5.476;2022-08-01T05:30:13;16.55;;;6.97;;
72920;SDS011;61064;51.654;5.476;2022-08-01T05:32:40;15.20;;;6.60;;
72920;SDS011;61064;51.654;5.476;2022-08-01T05:35:07;16.52;;;6.82;;
72920;SDS011;61064;51.654;5.476;2022-08-01T05:37:33;13.95;;;6.40;;
72920;SDS011;61064;51.654;5.476;2022-08-01T05:39:58;15.10;;;6.33;;
72920;SDS011;61064;51.654;5.476;2022-08-01T05:42:24;13.93;;;6.30;;
72920;SDS011;61064;51.654;5.476;2022-08-01T05:44:49;15.27;;;6.60;;
72920;SDS011;61064;51.654;5.476;2022-08-01T05:47:15;13.70;;;6.30;;
72920;SDS011;61064;51.654;5.476;2022-08-01T05:49:41;12.50;;;5.97;;
72920;SDS011;61064;51.654;5.476;2022-08-01T05:52:07;10.53;;;5.53;;
72920;SDS011;61064;51.654;5.476;2022-08-01T05:54:32;11.40;;;5.43;;
72920;SDS011;61064;51.654;5.476;2022-08-01T05:56:57;12.05;;;5.53;;
72920;SDS011;61064;51.654;5.476;2022-08-01T05:59:26;11.93;;;5.80;;
72920;SDS011;61064;51.654;5.476;2022-08-01T06:01:52;11.52;;;5.22;;
72920;SDS011;61064;51.654;5.476;2022-08-01T06:04:17;10.40;;;4.93;;
72920;SDS011;61064;51.654;5.476;2022-08-01T06:06:43;9.93;;;4.70;;
72920;SDS011;61064;51.654;5.476;2022-08-01T06:09:08;9.50;;;4.32;;
72920;SDS011;61064;51.654;5.476;2022-08-01T06:11:33;9.47;;;4.60;;
72920;SDS011;61064;51.654;5.476;2022-08-01T06:13:59;9.13;;;3.93;;
72920;SDS011;61064;51.654;5.476;2022-08-01T06:16:24;9.73;;;4.47;;
72920;SDS011;61064;51.654;5.476;2022-08-01T06:18:49;8.63;;;4.13;;
72920;SDS011;61064;51.654;5.476;2022-08-01T06:21:15;10.15;;;4.43;;
72920;SDS011;61064;51.654;5.476;2022-08-01T06:23:40;9.93;;;3.90;;
72920;SDS011;61064;51.654;5.476;2022-08-01T06:26:07;8.38;;;4.10;;
72920;SDS011;61064;51.654;5.476;2022-08-01T06:28:32;11.47;;;3.77;;
72920;SDS011;61064;51.654;5.476;2022-08-01T06:30:58;9.67;;;4.00;;
72920;SDS011;61064;51.654;5.476;2022-08-01T06:33:24;10.13;;;3.83;;
72920;SDS011;61064;51.654;5.476;2022-08-01T06:35:49;11.00;;;3.70;;
72920;SDS011;61064;51.654;5.476;2022-08-01T06:38:15;7.83;;;3.40;;
72920;SDS011;61064;51.654;5.476;2022-08-01T06:40:40;7.88;;;3.65;;
72920;SDS011;61064;51.654;5.476;2022-08-01T06:43:05;8.20;;;3.37;;
72920;SDS011;61064;51.654;5.476;2022-08-01T06:45:31;7.70;;;3.50;;
72920;SDS011;61064;51.654;5.476;2022-08-01T06:47:56;7.33;;;3.67;;
72920;SDS011;61064;51.654;5.476;2022-08-01T06:50:22;8.75;;;3.88;;
72920;SDS011;61064;51.654;5.476;2022-08-01T06:52:47;9.10;;;3.90;;
72920;SDS011;61064;51.654;5.476;2022-08-01T06:55:12;9.20;;;3.97;;
72920;SDS011;61064;51.654;5.476;2022-08-01T06:57:45;8.67;;;4.20;;
72920;SDS011;61064;51.654;5.476;2022-08-01T07:00:11;7.78;;;3.90;;
72920;SDS011;61064;51.654;5.476;2022-08-01T07:02:38;8.85;;;3.97;;
72920;SDS011;61064;51.654;5.476;2022-08-01T07:05:03;7.57;;;3.60;;
72920;SDS011;61064;51.654;5.476;2022-08-01T07:07:29;8.05;;;3.47;;
72920;SDS011;61064;51.654;5.476;2022-08-01T07:09:55;7.68;;;3.50;;
72920;SDS011;61064;51.654;5.476;2022-08-01T07:12:21;8.17;;;3.30;;
72920;SDS011;61064;51.654;5.476;2022-08-01T07:14:46;8.00;;;3.43;;
72920;SDS011;61064;51.654;5.476;2022-08-01T07:17:11;9.60;;;3.78;;
72920;SDS011;61064;51.654;5.476;2022-08-01T07:19:37;8.37;;;4.00;;
72920;SDS011;61064;51.654;5.476;2022-08-01T07:22:02;8.40;;;3.90;;
72920;SDS011;61064;51.654;5.476;2022-08-01T07:24:28;8.73;;;4.17;;
72920;SDS011;61064;51.654;5.476;2022-08-01T07:26:54;7.82;;;4.10;;
72920;SDS011;61064;51.654;5.476;2022-08-01T07:29:23;7.40;;;3.67;;
72920;SDS011;61064;51.654;5.476;2022-08-01T07:31:49;8.50;;;4.17;;
72920;SDS011;61064;51.654;5.476;2022-08-01T07:34:15;9.15;;;3.70;;
72920;SDS011;61064;51.654;5.476;2022-08-01T07:36:41;9.13;;;3.63;;
72920;SDS011;61064;51.654;5.476;2022-08-01T07:39:06;6.55;;;3.22;;
72920;SDS011;61064;51.654;5.476;2022-08-01T07:41:31;7.53;;;3.20;;
72920;SDS011;61064;51.654;5.476;2022-08-01T07:43:57;7.90;;;3.37;;
72920;SDS011;61064;51.654;5.476;2022-08-01T07:46:22;7.70;;;3.30;;
72920;SDS011;61064;51.654;5.476;2022-08-01T07:48:47;6.90;;;3.57;;
72920;SDS011;61064;51.654;5.476;2022-08-01T07:51:13;7.07;;;3.30;;
72920;SDS011;61064;51.654;5.476;2022-08-01T07:53:38;8.27;;;3.33;;
72920;SDS011;61064;51.654;5.476;2022-08-01T07:56:04;8.77;;;4.27;;
72920;SDS011;61064;51.654;5.476;2022-08-01T07:58:31;8.05;;;4.50;;
72920;SDS011;61064;51.654;5.476;2022-08-01T08:00:56;8.38;;;4.60;;
72920;SDS011;61064;51.654;5.476;2022-08-01T08:03:22;8.50;;;4.50;;
72920;SDS011;61064;51.654;5.476;2022-08-01T08:05:47;9.00;;;4.10;;
72920;SDS011;61064;51.654;5.476;2022-08-01T08:08:13;8.63;;;4.23;;
72920;SDS011;61064;51.654;5.476;2022-08-01T08:10:40;8.43;;;3.90;;
72920;SDS011;61064;51.654;5.476;2022-08-01T08:13:05;6.93;;;3.80;;
72920;SDS011;61064;51.654;5.476;2022-08-01T08:15:31;7.73;;;3.90;;
72920;SDS011;61064;51.654;5.476;2022-08-01T08:17:56;7.82;;;3.50;;
72920;SDS011;61064;51.654;5.476;2022-08-01T08:20:21;8.07;;;4.10;;
72920;SDS011;61064;51.654;5.476;2022-08-01T08:22:51;7.90;;;3.90;;
72920;SDS011;61064;51.654;5.476;2022-08-01T08:25:17;7.10;;;3.20;;
72920;SDS011;61064;51.654;5.476;2022-08-01T08:27:44;7.38;;;3.40;;
72920;SDS011;61064;51.654;5.476;2022-08-01T08:30:09;6.65;;;3.35;;
72920;SDS011;61064;51.654;5.476;2022-08-01T08:32:36;6.40;;;3.10;;
72920;SDS011;61064;51.654;5.476;2022-08-01T08:35:02;7.50;;;3.00;;
72920;SDS011;61064;51.654;5.476;2022-08-01T08:37:29;6.07;;;2.45;;
72920;SDS011;61064;51.654;5.476;2022-08-01T08:39:54;4.83;;;1.60;;
72920;SDS011;61064;51.654;5.476;2022-08-01T08:42:19;5.60;;;1.77;;
72920;SDS011;61064;51.654;5.476;2022-08-01T08:44:45;4.70;;;1.65;;
72920;SDS011;61064;51.654;5.476;2022-08-01T08:47:14;5.70;;;1.73;;
72920;SDS011;61064;51.654;5.476;2022-08-01T08:49:42;7.60;;;2.60;;
72920;SDS011;61064;51.654;5.476;2022-08-01T08:52:09;7.40;;;2.80;;
72920;SDS011;61064;51.654;5.476;2022-08-01T08:54:35;7.10;;;2.73;;
72920;SDS011;61064;51.654;5.476;2022-08-01T08:57:02;6.25;;;2.42;;
72920;SDS011;61064;51.654;5.476;2022-08-01T08:59:29;6.00;;;2.38;;
72920;SDS011;61064;51.654;5.476;2022-08-01T09:01:55;6.37;;;2.53;;
72920;SDS011;61064;51.654;5.476;2022-08-01T09:04:21;6.10;;;2.10;;
72920;SDS011;61064;51.654;5.476;2022-08-01T09:06:50;5.72;;;2.13;;
72920;SDS011;61064;51.654;5.476;2022-08-01T09:09:15;5.68;;;2.20;;
72920;SDS011;61064;51.654;5.476;2022-08-01T09:11:41;5.00;;;2.10;;
72920;SDS011;61064;51.654;5.476;2022-08-01T09:16:57;5.43;;;1.92;;
72920;SDS011;61064;51.654;5.476;2022-08-01T09:19:24;7.45;;;1.90;;
72920;SDS011;61064;51.654;5.476;2022-08-01T09:22:00;5.30;;;1.97;;
72920;SDS011;61064;51.654;5.476;2022-08-01T09:24:30;5.60;;;1.80;;
72920;SDS011;61064;51.654;5.476;2022-08-01T09:26:56;4.67;;;1.70;;
72920;SDS011;61064;51.654;5.476;2022-08-01T09:29:24;5.40;;;1.80;;
72920;SDS011;61064;51.654;5.476;2022-08-01T09:31:54;5.63;;;1.65;;
72920;SDS011;61064;51.654;5.476;2022-08-01T09:34:28;5.75;;;1.70;;
72920;SDS011;61064;51.654;5.476;2022-08-01T09:36:56;5.47;;;1.30;;
72920;SDS011;61064;51.654;5.476;2022-08-01T09:39:28;4.70;;;1.27;;
72920;SDS011;61064;51.654;5.476;2022-08-01T09:41:55;4.32;;;1.30;;
72920;SDS011;61064;51.654;5.476;2022-08-01T09:44:38;5.40;;;1.08;;
72920;SDS011;61064;51.654;5.476;2022-08-01T09:47:05;4.40;;;1.15;;
72920;SDS011;61064;51.654;5.476;2022-08-01T09:49:32;4.57;;;1.30;;
72920;SDS011;61064;51.654;5.476;2022-08-01T09:52:00;5.72;;;1.48;;
72920;SDS011;61064;51.654;5.476;2022-08-01T09:54:36;4.63;;;1.30;;
72920;SDS011;61064;51.654;5.476;2022-08-01T09:57:08;4.50;;;1.30;;
72920;SDS011;61064;51.654;5.476;2022-08-01T09:59:36;4.50;;;1.20;;
72920;SDS011;61064;51.654;5.476;2022-08-01T10:02:11;4.88;;;1.30;;
72920;SDS011;61064;51.654;5.476;2022-08-01T10:04:49;4.38;;;1.00;;
72920;SDS011;61064;51.654;5.476;2022-08-01T10:07:16;3.75;;;0.90;;
72920;SDS011;61064;51.654;5.476;2022-08-01T10:09:42;6.73;;;1.13;;
72920;SDS011;61064;51.654;5.476;2022-08-01T10:12:09;3.65;;;1.00;;
72920;SDS011;61064;51.654;5.476;2022-08-01T10:14:36;3.67;;;0.80;;
72920;SDS011;61064;51.654;5.476;2022-08-01T10:17:03;5.13;;;1.00;;
72920;SDS011;61064;51.654;5.476;2022-08-01T10:19:33;3.03;;;0.60;;
72920;SDS011;61064;51.654;5.476;2022-08-01T10:22:00;3.57;;;0.70;;
72920;SDS011;61064;51.654;5.476;2022-08-01T10:24:28;2.65;;;0.60;;
72920;SDS011;61064;51.654;5.476;2022-08-01T10:26:58;3.47;;;0.80;;
72920;SDS011;61064;51.654;5.476;2022-08-01T10:29:29;3.17;;;0.80;;
72920;SDS011;61064;51.654;5.476;2022-08-01T10:31:59;5.05;;;1.10;;
72920;SDS011;61064;51.654;5.476;2022-08-01T10:34:24;4.40;;;1.07;;
72920;SDS011;61064;51.654;5.476;2022-08-01T10:36:51;4.97;;;1.00;;
72920;SDS011;61064;51.654;5.476;2022-08-01T10:39:17;4.37;;;1.20;;
72920;SDS011;61064;51.654;5.476;2022-08-01T10:41:43;5.38;;;0.90;;
72920;SDS011;61064;51.654;5.476;2022-08-01T10:44:10;3.13;;;0.70;;
72920;SDS011;61064;51.654;5.476;2022-08-01T10:46:37;4.53;;;0.60;;
72920;SDS011;61064;51.654;5.476;2022-08-01T10:49:07;3.83;;;0.63;;
72920;SDS011;61064;51.654;5.476;2022-08-01T10:51:40;4.45;;;0.60;;
72920;SDS011;61064;51.654;5.476;2022-08-01T10:54:07;4.32;;;0.80;;
72920;SDS011;61064;51.654;5.476;2022-08-01T10:56:44;4.32;;;0.80;;
72920;SDS011;61064;51.654;5.476;2022-08-01T10:59:15;3.58;;;0.80;;
72920;SDS011;61064;51.654;5.476;2022-08-01T11:02:02;5.00;;;0.90;;
72920;SDS011;61064;51.654;5.476;2022-08-01T11:04:33;5.13;;;1.15;;
72920;SDS011;61064;51.654;5.476;2022-08-01T11:07:52;4.30;;;0.90;;
72920;SDS011;61064;51.654;5.476;2022-08-01T11:10:10;4.88;;;1.05;;
72920;SDS011;61064;51.654;5.476;2022-08-01T11:12:41;4.78;;;1.10;;
72920;SDS011;61064;51.654;5.476;2022-08-01T11:17:40;5.25;;;1.33;;
72920;SDS011;61064;51.654;5.476;2022-08-01T11:20:19;4.68;;;1.02;;
72920;SDS011;61064;51.654;5.476;2022-08-01T11:25:24;4.72;;;1.27;;
72920;SDS011;61064;51.654;5.476;2022-08-01T11:30:41;4.63;;;1.17;;
72920;SDS011;61064;51.654;5.476;2022-08-01T11:33:18;6.20;;;1.50;;
72920;SDS011;61064;51.654;5.476;2022-08-01T11:39:18;6.95;;;2.10;;
72920;SDS011;61064;51.654;5.476;2022-08-01T11:41:25;5.57;;;2.00;;
72920;SDS011;61064;51.654;5.476;2022-08-01T11:44:02;5.70;;;1.73;;
72920;SDS011;61064;51.654;5.476;2022-08-01T11:52:08;5.72;;;1.20;;
72920;SDS011;61064;51.654;5.476;2022-08-01T11:54:55;6.90;;;1.20;;
72920;SDS011;61064;51.654;5.476;2022-08-01T11:57:24;5.63;;;1.10;;
72920;SDS011;61064;51.654;5.476;2022-08-01T11:59:55;5.72;;;1.08;;
72920;SDS011;61064;51.654;5.476;2022-08-01T12:05:05;5.05;;;0.95;;
72920;SDS011;61064;51.654;5.476;2022-08-01T12:07:36;6.33;;;1.10;;
72920;SDS011;61064;51.654;5.476;2022-08-01T12:10:13;4.00;;;1.15;;
72920;SDS011;61064;51.654;5.476;2022-08-01T12:15:15;6.32;;;1.70;;
72920;SDS011;61064;51.654;5.476;2022-08-01T12:17:41;5.63;;;1.40;;
72920;SDS011;61064;51.654;5.476;2022-08-01T12:20:10;7.83;;;1.20;;
72920;SDS011;61064;51.654;5.476;2022-08-01T12:22:37;6.93;;;1.50;;
72920;SDS011;61064;51.654;5.476;2022-08-01T12:27:33;6.77;;;1.60;;
72920;SDS011;61064;51.654;5.476;2022-08-01T12:29:59;5.43;;;1.33;;
72920;SDS011;61064;51.654;5.476;2022-08-01T12:32:29;5.78;;;1.20;;
72920;SDS011;61064;51.654;5.476;2022-08-01T12:34:57;6.38;;;1.13;;
72920;SDS011;61064;51.654;5.476;2022-08-01T12:37:27;4.85;;;0.93;;
72920;SDS011;61064;51.654;5.476;2022-08-01T12:39:52;3.90;;;0.90;;
72920;SDS011;61064;51.654;5.476;2022-08-01T12:42:18;4.95;;;0.80;;
72920;SDS011;61064;51.654;5.476;2022-08-01T12:44:45;5.97;;;0.90;;
72920;SDS011;61064;51.654;5.476;2022-08-01T12:47:13;4.57;;;0.80;;
72920;SDS011;61064;51.654;5.476;2022-08-01T12:49:40;5.85;;;1.40;;
72920;SDS011;61064;51.654;5.476;2022-08-01T12:52:07;9.03;;;1.40;;
72920;SDS011;61064;51.654;5.476;2022-08-01T12:57:26;6.20;;;1.35;;
72920;SDS011;61064;51.654;5.476;2022-08-01T13:02:37;8.38;;;1.50;;
72920;SDS011;61064;51.654;5.476;2022-08-01T13:05:04;8.27;;;1.50;;
72920;SDS011;61064;51.654;5.476;2022-08-01T13:07:36;8.38;;;1.60;;
72920;SDS011;61064;51.654;5.476;2022-08-01T13:10:10;8.85;;;1.88;;
72920;SDS011;61064;51.654;5.476;2022-08-01T13:12:36;7.18;;;1.40;;
72920;SDS011;61064;51.654;5.476;2022-08-01T13:17:44;7.50;;;1.40;;
72920;SDS011;61064;51.654;5.476;2022-08-01T13:20:09;6.13;;;1.20;;
72920;SDS011;61064;51.654;5.476;2022-08-01T13:22:45;7.38;;;1.40;;
72920;SDS011;61064;51.654;5.476;2022-08-01T13:25:11;8.17;;;1.50;;
72920;SDS011;61064;51.654;5.476;2022-08-01T13:27:37;6.40;;;1.30;;
72920;SDS011;61064;51.654;5.476;2022-08-01T13:30:11;8.47;;;1.60;;
72920;SDS011;61064;51.654;5.476;2022-08-01T13:32:41;5.93;;;1.33;;
72920;SDS011;61064;51.654;5.476;2022-08-01T13:35:09;6.00;;;1.20;;
72920;SDS011;61064;51.654;5.476;2022-08-01T13:37:37;6.40;;;1.10;;
72920;SDS011;61064;51.654;5.476;2022-08-01T13:40:08;5.70;;;1.05;;
72920;SDS011;61064;51.654;5.476;2022-08-01T13:42:35;5.57;;;1.10;;
72920;SDS011;61064;51.654;5.476;2022-08-01T13:45:01;5.68;;;1.10;;
72920;SDS011;61064;51.654;5.476;2022-08-01T13:47:28;5.65;;;1.15;;
72920;SDS011;61064;51.654;5.476;2022-08-01T13:49:53;7.57;;;1.23;;
72920;SDS011;61064;51.654;5.476;2022-08-01T13:52:19;7.68;;;1.45;;
72920;SDS011;61064;51.654;5.476;2022-08-01T13:54:44;6.13;;;1.50;;
72920;SDS011;61064;51.654;5.476;2022-08-01T13:57:10;7.43;;;1.30;;
72920;SDS011;61064;51.654;5.476;2022-08-01T13:59:35;8.33;;;1.40;;
72920;SDS011;61064;51.654;5.476;2022-08-01T14:02:01;7.37;;;1.23;;
72920;SDS011;61064;51.654;5.476;2022-08-01T14:04:26;8.55;;;1.60;;
72920;SDS011;61064;51.654;5.476;2022-08-01T14:06:52;6.87;;;1.30;;
72920;SDS011;61064;51.654;5.476;2022-08-01T14:09:19;6.70;;;1.55;;
72920;SDS011;61064;51.654;5.476;2022-08-01T14:11:47;7.57;;;1.33;;
72920;SDS011;61064;51.654;5.476;2022-08-01T14:14:13;6.40;;;1.23;;
72920;SDS011;61064;51.654;5.476;2022-08-01T14:16:39;8.18;;;1.33;;
72920;SDS011;61064;51.654;5.476;2022-08-01T14:19:04;8.40;;;1.50;;
72920;SDS011;61064;51.654;5.476;2022-08-01T14:21:30;7.57;;;1.30;;
72920;SDS011;61064;51.654;5.476;2022-08-01T14:23:56;7.13;;;1.30;;
72920;SDS011;61064;51.654;5.476;2022-08-01T14:26:21;6.63;;;1.38;;
72920;SDS011;61064;51.654;5.476;2022-08-01T14:28:47;5.73;;;1.37;;
72920;SDS011;61064;51.654;5.476;2022-08-01T14:31:12;5.93;;;1.23;;
72920;SDS011;61064;51.654;5.476;2022-08-01T14:33:37;7.03;;;1.40;;
72920;SDS011;61064;51.654;5.476;2022-08-01T14:36:03;10.57;;;2.00;;
72920;SDS011;61064;51.654;5.476;2022-08-01T14:38:29;10.35;;;1.73;;
72920;SDS011;61064;51.654;5.476;2022-08-01T14:40:54;8.90;;;1.63;;
72920;SDS011;61064;51.654;5.476;2022-08-01T14:43:20;8.40;;;1.50;;
72920;SDS011;61064;51.654;5.476;2022-08-01T14:45:46;8.27;;;1.40;;
72920;SDS011;61064;51.654;5.476;2022-08-01T14:48:16;7.85;;;1.45;;
72920;SDS011;61064;51.654;5.476;2022-08-01T14:50:42;7.75;;;1.30;;
72920;SDS011;61064;51.654;5.476;2022-08-01T14:53:07;10.23;;;1.40;;
72920;SDS011;61064;51.654;5.476;2022-08-01T14:55:33;7.47;;;1.33;;
72920;SDS011;61064;51.654;5.476;2022-08-01T14:57:58;7.87;;;1.40;;
72920;SDS011;61064;51.654;5.476;2022-08-01T15:00:23;8.88;;;1.70;;
72920;SDS011;61064;51.654;5.476;2022-08-01T15:02:50;8.07;;;1.50;;
72920;SDS011;61064;51.654;5.476;2022-08-01T15:05:15;9.30;;;1.60;;
72920;SDS011;61064;51.654;5.476;2022-08-01T15:07:41;6.30;;;1.23;;
72920;SDS011;61064;51.654;5.476;2022-08-01T15:10:06;7.83;;;1.40;;
72920;SDS011;61064;51.654;5.476;2022-08-01T15:12:32;8.18;;;1.52;;
72920;SDS011;61064;51.654;5.476;2022-08-01T15:14:59;7.90;;;1.58;;
72920;SDS011;61064;51.654;5.476;2022-08-01T15:17:28;10.48;;;1.77;;
72920;SDS011;61064;51.654;5.476;2022-08-01T15:19:57;8.23;;;1.53;;
72920;SDS011;61064;51.654;5.476;2022-08-01T15:22:24;9.98;;;1.52;;
72920;SDS011;61064;51.654;5.476;2022-08-01T15:24:50;6.65;;;1.40;;